Time;durP1;ratioP1;P1;durP2;ratioP2;P2;SDS_P1;SDS_P2;PMS_P1;PMS_P2;Temp;Humidity;BMP_temperature;BMP_pressure;BME280_temperature;BME280_humidity;BME280_pressure;Samples;Min_cycle;Max_cycle;Signal;HPM_P1;HPM_P2
2023/02/01 00:02:26;;;;;;;3.23;2.60;;;;;;;4.92;67.95;96131.31;6093747;23;20184;-83
2023/02/01 00:04:53;;;;;;;2.30;2.10;;;;;;;4.98;67.78;96127.47;6094997;23;20187;-83
2023/02/01 00:07:19;;;;;;;3.00;2.70;;;;;;;4.96;67.44;96129.34;6095002;23;20180;-83
2023/02/01 00:09:46;;;;;;;3.87;2.67;;;;;;;5.03;67.00;96127.84;6094109;23;20204;-83
2023/02/01 00:12:12;;;;;;;3.13;2.67;;;;;;;5.01;67.24;96122.88;6094550;23;20209;-83
2023/02/01 00:14:39;;;;;;;2.63;2.40;;;;;;;4.94;67.00;96123.53;6095043;23;20196;-83
2023/02/01 00:17:06;;;;;;;4.53;2.77;;;;;;;4.87;67.31;96125.78;6093301;23;20651;-83
2023/02/01 00:19:35;;;;;;;4.43;2.70;;;;;;;4.97;66.98;96123.28;6093802;23;20200;-83
2023/02/01 00:22:01;;;;;;;3.10;2.80;;;;;;;4.96;67.13;96125.03;6095274;23;20172;-83
2023/02/01 00:24:28;;;;;;;3.03;2.53;;;;;;;4.98;67.27;96125.72;6094747;23;20180;-83
2023/02/01 00:26:54;;;;;;;3.07;2.60;;;;;;;5.05;66.89;96124.25;6095299;23;20180;-83
2023/02/01 00:29:21;;;;;;;2.97;2.53;;;;;;;5.01;67.54;96133.09;6094378;23;20211;-83
2023/02/01 00:31:47;;;;;;;3.10;2.80;;;;;;;5.02;68.13;96119.41;6094222;23;20184;-82
2023/02/01 00:34:16;;;;;;;2.53;2.30;;;;;;;4.98;68.63;96114.69;6095019;23;20180;-81
2023/02/01 00:36:44;;;;;;;2.87;2.60;;;;;;;4.99;68.78;96113.78;6097237;23;20196;-81
2023/02/01 00:39:12;;;;;;;3.60;3.03;;;;;;;5.07;68.92;96117.28;6097177;23;20184;-82
2023/02/01 00:41:40;;;;;;;3.57;2.67;;;;;;;5.11;68.63;96122.94;6096996;23;20176;-82
2023/02/01 00:44:06;;;;;;;3.20;2.60;;;;;;;5.05;69.29;96114.03;6097136;23;20505;-82
2023/02/01 00:46:33;;;;;;;4.47;2.80;;;;;;;5.03;69.83;96110.81;6095930;23;20184;-81
2023/02/01 00:48:59;;;;;;;3.30;3.00;;;;;;;4.99;70.24;96116.31;6096934;23;20180;-82
2023/02/01 00:51:28;;;;;;;3.57;2.90;;;;;;;4.97;70.94;96106.25;6096743;23;20199;-82
2023/02/01 00:53:56;;;;;;;3.47;3.07;;;;;;;4.97;71.67;96100.31;6096444;23;20239;-81
2023/02/01 00:56:23;;;;;;;3.67;3.03;;;;;;;4.93;72.30;96104.88;6097796;23;20180;-82
2023/02/01 00:58:49;;;;;;;3.50;3.03;;;;;;;4.91;73.48;96109.28;6097098;23;20676;-82
2023/02/01 01:01:17;;;;;;;4.80;3.27;;;;;;;4.84;74.58;96092.88;6096563;23;20200;-81
2023/02/01 01:03:46;;;;;;;3.97;3.20;;;;;;;4.79;74.97;96095.03;6097553;23;20177;-82
2023/02/01 01:06:16;;;;;;;4.70;3.50;;;;;;;4.84;74.89;96097.97;6096384;23;20191;-82
2023/02/01 01:08:43;;;;;;;3.90;3.30;;;;;;;4.82;74.85;96097.28;6095831;23;20183;-82
2023/02/01 01:11:12;;;;;;;3.40;2.90;;;;;;;4.88;74.72;96096.78;6095954;23;20207;-82
2023/02/01 01:13:39;;;;;;;3.43;3.03;;;;;;;4.86;75.09;96091.81;6096339;23;20191;-81
2023/02/01 01:16:07;;;;;;;3.30;3.00;;;;;;;4.87;74.96;96095.19;6096399;23;20164;-82
2023/02/01 01:18:34;;;;;;;3.50;3.10;;;;;;;4.85;75.10;96090.19;6096511;23;20640;-82
2023/02/01 01:21:01;;;;;;;4.00;3.33;;;;;;;4.85;74.88;96089.38;6096424;23;20200;-81
2023/02/01 01:23:28;;;;;;;5.03;3.27;;;;;;;4.81;75.68;96090.59;6095749;23;20671;-82
2023/02/01 01:25:55;;;;;;;4.33;3.80;;;;;;;4.80;75.61;96089.81;6096123;23;20172;-82
2023/02/01 01:28:23;;;;;;;3.80;3.20;;;;;;;4.82;75.37;96090.44;6095984;23;20211;-81
2023/02/01 01:30:49;;;;;;;4.47;3.53;;;;;;;4.82;75.43;96098.09;6095033;23;20212;-82
2023/02/01 01:33:16;;;;;;;3.67;3.17;;;;;;;4.71;76.60;96088.00;6096575;23;20205;-82
2023/02/01 01:35:43;;;;;;;3.77;3.33;;;;;;;4.69;78.15;96096.72;6097072;23;20688;-82
2023/02/01 01:38:11;;;;;;;4.10;3.63;;;;;;;4.63;79.01;96087.00;6097551;23;20198;-81
2023/02/01 01:40:37;;;;;;;4.77;3.63;;;;;;;4.62;79.32;96091.31;6097383;23;20200;-82
2023/02/01 01:43:04;;;;;;;4.43;3.53;;;;;;;4.63;79.58;96087.00;6096681;23;20235;-82
2023/02/01 01:45:34;;;;;;;4.17;3.60;;;;;;;4.69;79.45;96082.22;6095744;23;20187;-82
2023/02/01 01:48:04;;;;;;;4.00;3.60;;;;;;;4.68;79.70;96079.78;6096020;23;20251;-82
2023/02/01 01:50:34;;;;;;;5.00;3.80;;;;;;;4.60;80.86;96069.44;6095708;23;20218;-81
2023/02/01 01:53:04;;;;;;;4.40;3.70;;;;;;;4.43;81.73;96061.41;6101520;23;20203;-82
2023/02/01 01:55:34;;;;;;;4.70;3.90;;;;;;;4.49;82.12;96065.22;6104207;23;20184;-82
2023/02/01 01:58:05;;;;;;;3.97;3.57;;;;;;;4.48;82.05;96061.84;6103519;23;20176;-82
2023/02/01 02:00:33;;;;;;;4.63;3.70;;;;;;;4.47;82.88;96052.59;6104260;23;20218;-82
2023/02/01 02:03:04;;;;;;;4.73;4.30;;;;;;;4.50;82.80;96056.63;6105083;23;20405;-82
2023/02/01 02:05:31;;;;;;;4.73;4.23;;;;;;;4.53;82.71;96045.38;6102975;23;20165;-81
2023/02/01 02:07:59;;;;;;;5.77;4.70;;;;;;;4.41;83.21;96044.66;6103909;23;20202;-82
2023/02/01 02:10:59;;;;;;;4.40;4.00;;;;;;;4.42;83.76;96042.00;6106344;23;20207;-81
2023/02/01 02:13:15;;;;;;;5.50;4.60;;;;;;;4.47;83.33;96051.78;6099764;23;20759;-82
2023/02/01 02:15:50;;;;;;;4.87;4.37;;;;;;;4.43;83.69;96047.88;6099926;23;20311;-82
2023/02/01 02:18:26;;;;;;;5.03;4.07;;;;;;;4.34;84.56;96043.56;6099254;23;20251;-82
2023/02/01 02:21:12;;;;;;;5.10;4.60;;;;;;;4.42;84.21;96049.66;6099059;23;20260;-82
2023/02/01 02:24:17;;;;;;;5.23;4.47;;;;;;;4.48;83.81;96055.94;6099353;23;20165;-82
2023/02/01 02:27:22;;;;;;;6.30;4.77;;;;;;;4.51;84.00;96063.34;6098232;23;20700;-81
2023/02/01 02:30:23;;;;;;;4.60;3.80;;;;;;;4.42;84.39;96070.03;6099410;23;20208;-82
2023/02/01 02:33:08;;;;;;;5.03;4.00;;;;;;;4.44;84.08;96068.13;6098956;23;20297;-82
2023/02/01 02:35:47;;;;;;;5.10;4.60;;;;;;;4.30;85.18;96067.66;6098878;23;20163;-82
2023/02/01 02:38:23;;;;;;;5.50;4.20;;;;;;;4.45;84.36;96058.75;6098515;23;20165;-82
2023/02/01 02:40:57;;;;;;;5.40;4.10;;;;;;;4.36;85.39;96057.78;6099198;23;20562;-82
2023/02/01 02:49:13;;;;;;;4.83;4.33;;;;;;;4.46;84.13;96053.53;6098619;23;20216;-81
2023/02/01 02:54:50;;;;;;;5.23;3.83;;;;;;;4.49;84.10;96048.19;6009343;23;20336;-82
2023/02/01 03:05:42;;;;;;;4.23;3.63;;;;;;;4.53;83.03;96038.53;6030807;23;20192;-82
2023/02/01 03:08:14;;;;;;;5.53;3.80;;;;;;;4.57;82.76;96034.81;6097994;23;20165;-82
2023/02/01 03:10:54;;;;;;;4.97;3.70;;;;;;;4.60;82.34;96036.28;6098059;23;20270;-82
2023/02/01 03:13:28;;;;;;;3.87;3.43;;;;;;;4.64;82.08;96030.78;6097782;23;20188;-82
2023/02/01 03:16:01;;;;;;;3.93;3.57;;;;;;;4.65;82.10;96036.69;6097674;23;20180;-82
2023/02/01 03:18:34;;;;;;;4.73;3.60;;;;;;;4.60;81.92;96023.53;6096656;23;20164;-82
2023/02/01 03:21:05;;;;;;;4.33;3.60;;;;;;;4.62;81.46;96021.69;6098224;23;20196;-82
2023/02/01 03:23:36;;;;;;;3.93;3.10;;;;;;;4.64;81.55;96022.31;6098758;23;20176;-82
2023/02/01 03:26:04;;;;;;;4.00;3.60;;;;;;;4.62;81.10;96016.56;6098525;23;20718;-82
2023/02/01 03:28:34;;;;;;;4.03;3.47;;;;;;;4.50;81.80;96015.84;6097559;23;20180;-82
2023/02/01 03:31:02;;;;;;;3.50;3.20;;;;;;;4.60;81.20;96026.91;6096833;23;20208;-82
2023/02/01 03:33:30;;;;;;;4.40;3.70;;;;;;;4.71;80.53;96019.13;6097165;23;20203;-82
2023/02/01 03:36:06;;;;;;;4.00;3.60;;;;;;;4.71;80.22;96020.88;6097632;23;20180;-82
2023/02/01 03:38:41;;;;;;;3.50;3.20;;;;;;;4.66;80.47;96017.91;6098175;23;20219;-82
2023/02/01 03:41:14;;;;;;;3.70;3.40;;;;;;;4.63;80.42;96020.72;6098163;23;20198;-82
2023/02/01 03:43:54;;;;;;;4.67;3.30;;;;;;;4.63;80.50;96020.72;6098011;23;20187;-82
2023/02/01 03:46:32;;;;;;;3.97;3.40;;;;;;;4.68;79.75;96011.75;6098597;23;20349;-82
2023/02/01 03:49:03;;;;;;;3.93;3.20;;;;;;;4.62;80.16;96006.38;6097921;23;20628;-82
2023/02/01 03:51:32;;;;;;;3.43;3.13;;;;;;;4.58;80.13;96002.47;6097953;23;20175;-82
2023/02/01 03:54:02;;;;;;;3.73;3.30;;;;;;;4.54;80.62;96008.75;6097095;23;20199;-82
2023/02/01 03:56:31;;;;;;;3.77;3.30;;;;;;;4.53;80.25;96007.94;6097907;23;20188;-82
2023/02/01 03:59:00;;;;;;;4.03;3.50;;;;;;;4.58;79.62;96000.72;6097987;23;20722;-82
2023/02/01 04:01:29;;;;;;;3.90;3.50;;;;;;;4.60;79.41;96011.59;6098214;23;20180;-82
2023/02/01 04:03:55;;;;;;;3.93;3.37;;;;;;;4.67;79.14;96010.13;6097676;23;20488;-82
2023/02/01 04:06:22;;;;;;;3.63;3.20;;;;;;;4.68;79.25;96001.53;6097356;23;20183;-82
2023/02/01 04:08:49;;;;;;;3.87;3.47;;;;;;;4.61;79.12;96009.84;6097761;23;20202;-82
2023/02/01 04:11:18;;;;;;;3.50;3.20;;;;;;;4.64;79.13;96007.03;6096545;23;20206;-82
2023/02/01 04:13:44;;;;;;;3.80;3.40;;;;;;;4.63;79.19;96013.06;6097467;23;20395;-82
2023/02/01 04:16:11;;;;;;;3.50;3.07;;;;;;;4.60;79.01;96015.91;6096213;23;20184;-82
2023/02/01 04:18:37;;;;;;;4.80;3.60;;;;;;;4.70;78.52;96020.06;6096439;23;20176;-82
2023/02/01 04:21:04;;;;;;;3.97;3.60;;;;;;;4.68;78.50;96005.84;6096798;23;20559;-82
2023/02/01 04:23:31;;;;;;;4.10;3.70;;;;;;;4.69;78.56;96007.44;6096609;23;20187;-82
2023/02/01 04:26:01;;;;;;;3.80;3.30;;;;;;;4.64;78.08;95995.06;6096615;23;20180;-82
2023/02/01 04:28:29;;;;;;;5.47;3.80;;;;;;;4.67;77.81;96009.31;6096315;23;20176;-81
2023/02/01 04:30:55;;;;;;;4.77;3.20;;;;;;;4.70;77.94;96004.78;6096028;23;20210;-82
2023/02/01 04:33:22;;;;;;;4.30;3.57;;;;;;;4.65;77.61;95996.69;6096992;23;20223;-82
2023/02/01 04:35:48;;;;;;;4.30;3.77;;;;;;;4.73;77.37;96003.72;6097657;23;20180;-81
2023/02/01 04:38:15;;;;;;;4.33;3.53;;;;;;;4.68;77.00;96000.72;6097345;23;20179;-82
2023/02/01 04:40:41;;;;;;;3.90;3.50;;;;;;;4.68;76.98;96003.28;6097636;23;20255;-82
2023/02/01 04:43:07;;;;;;;4.37;3.97;;;;;;;4.66;76.79;96000.06;6097390;23;20172;-82
2023/02/01 04:45:35;;;;;;;4.17;3.40;;;;;;;4.65;76.84;96004.34;6096930;23;20239;-82
2023/02/01 04:48:02;;;;;;;3.27;2.97;;;;;;;4.66;77.13;96010.25;6097356;23;20180;-82
2023/02/01 04:50:28;;;;;;;4.70;3.57;;;;;;;4.62;76.83;96011.47;6095602;23;20231;-82
2023/02/01 04:52:54;;;;;;;5.23;3.80;;;;;;;4.61;77.15;96005.56;6097145;23;20204;-82
2023/02/01 04:55:21;;;;;;;4.40;3.90;;;;;;;4.63;77.00;96002.84;6096647;23;20184;-82
2023/02/01 04:57:47;;;;;;;4.00;3.60;;;;;;;4.67;76.90;96007.56;6097269;23;20176;-82
2023/02/01 05:00:15;;;;;;;5.17;4.03;;;;;;;4.71;76.43;96010.69;6098117;23;20203;-82
2023/02/01 05:02:42;;;;;;;4.67;4.07;;;;;;;4.63;76.50;96007.97;6097201;23;20215;-82
2023/02/01 05:05:09;;;;;;;4.57;4.17;;;;;;;4.61;76.79;96025.97;6097216;23;20180;-82
2023/02/01 05:07:36;;;;;;;4.50;4.00;;;;;;;4.62;76.51;96006.38;6097242;23;20180;-83
2023/02/01 05:10:03;;;;;;;4.97;4.20;;;;;;;4.74;76.22;96010.44;6096363;23;20204;-83
2023/02/01 05:15:14;;;;;;;5.10;4.10;;;;;;;4.58;76.46;96018.56;6098156;23;20217;-82
2023/02/01 05:17:40;;;;;;;5.13;4.47;;;;;;;4.61;76.65;96025.16;6100546;23;20185;-81
2023/02/01 05:20:10;;;;;;;4.77;4.10;;;;;;;4.64;76.39;96018.03;6101597;23;20196;-81
2023/02/01 05:22:36;;;;;;;5.30;4.30;;;;;;;4.66;76.22;96018.72;6102340;23;20183;-81
2023/02/01 05:25:02;;;;;;;4.83;3.93;;;;;;;4.70;75.60;96009.06;6102288;23;20195;-81
2023/02/01 05:27:30;;;;;;;6.97;4.27;;;;;;;4.66;75.81;96012.81;6103345;23;20177;-81
2023/02/01 05:29:56;;;;;;;4.67;4.17;;;;;;;4.71;76.08;96013.22;6102326;23;20204;-81
2023/02/01 05:32:23;;;;;;;4.93;4.20;;;;;;;4.71;75.82;96020.88;6094823;23;20186;-85
2023/02/01 05:34:49;;;;;;;4.57;4.17;;;;;;;4.68;75.50;96016.84;6097363;23;20255;-85
2023/02/01 05:37:17;;;;;;;5.00;4.50;;;;;;;4.64;75.57;96012.13;6098396;23;20640;-83
2023/02/01 05:39:43;;;;;;;6.07;4.17;;;;;;;4.62;75.76;96004.59;6098710;23;20203;-82
2023/02/01 05:42:10;;;;;;;4.93;4.10;;;;;;;4.69;75.69;96008.25;6096417;23;20176;-80
2023/02/01 05:44:36;;;;;;;4.67;3.97;;;;;;;4.69;75.74;96008.25;6097510;23;20194;-82
2023/02/01 05:47:03;;;;;;;5.90;4.30;;;;;;;4.69;75.53;96018.47;6096343;23;20207;-82
2023/02/01 05:49:32;;;;;;;4.70;4.03;;;;;;;4.79;75.00;96011.66;6097428;23;20192;-83
2023/02/01 05:52:02;;;;;;;5.17;3.73;;;;;;;4.75;75.15;96000.09;6096013;23;20382;-83
2023/02/01 05:54:29;;;;;;;4.40;3.90;;;;;;;4.63;75.33;95995.22;6096537;23;20205;-82
2023/02/01 05:56:56;;;;;;;5.87;4.20;;;;;;;4.65;75.71;96001.78;6099247;23;20595;-82
2023/02/01 05:59:23;;;;;;;5.40;4.37;;;;;;;4.61;75.99;95999.66;6100572;23;20207;-82
2023/02/01 06:01:49;;;;;;;4.87;4.40;;;;;;;4.60;75.91;96005.69;6098700;23;20176;-82
2023/02/01 06:04:15;;;;;;;4.47;4.07;;;;;;;4.59;75.96;95998.97;6099253;23;20184;-83
2023/02/01 06:06:42;;;;;;;5.10;4.30;;;;;;;4.66;75.81;96005.16;6099205;23;20187;-82
2023/02/01 06:09:08;;;;;;;4.70;4.30;;;;;;;4.67;75.57;95999.94;6099394;23;20511;-82
2023/02/01 06:11:36;;;;;;;4.50;4.07;;;;;;;4.73;75.39;95996.06;6098692;23;20184;-82
2023/02/01 06:14:02;;;;;;;5.47;4.23;;;;;;;4.77;75.05;95992.31;6099577;23;20204;-82
2023/02/01 06:16:29;;;;;;;4.50;3.97;;;;;;;4.71;75.44;95996.19;6097311;23;20180;-82
2023/02/01 06:18:55;;;;;;;4.77;4.27;;;;;;;4.74;75.62;96006.13;6098669;23;20532;-83
2023/02/01 06:21:24;;;;;;;4.70;3.70;;;;;;;4.75;75.23;96010.28;6098357;23;20208;-83
2023/02/01 06:23:50;;;;;;;5.23;4.50;;;;;;;4.74;75.09;96006.13;6097933;23;20180;-83
2023/02/01 06:26:17;;;;;;;4.33;3.83;;;;;;;4.67;75.49;96006.78;6098366;23;20184;-83
2023/02/01 06:28:45;;;;;;;5.43;4.53;;;;;;;4.58;75.67;96013.47;6098224;23;20180;-83
2023/02/01 06:31:12;;;;;;;4.50;3.90;;;;;;;4.65;75.67;96023.94;6097799;23;20212;-83
2023/02/01 06:33:39;;;;;;;4.87;3.93;;;;;;;4.58;75.55;95997.34;6098845;23;20196;-83
2023/02/01 06:36:07;;;;;;;4.47;3.67;;;;;;;4.64;75.76;96002.72;6098609;23;20180;-83
2023/02/01 06:38:35;;;;;;;4.90;4.33;;;;;;;4.68;75.55;95987.97;6098742;23;20176;-83
2023/02/01 06:41:02;;;;;;;5.43;4.27;;;;;;;4.60;76.14;95991.19;6098140;23;20521;-83
2023/02/01 06:43:28;;;;;;;4.57;3.87;;;;;;;4.61;75.67;95986.91;6096752;23;20179;-83
2023/02/01 06:46:01;;;;;;;4.30;3.77;;;;;;;4.62;75.93;95994.41;6095486;23;20184;-83
2023/02/01 06:48:27;;;;;;;4.00;3.60;;;;;;;4.65;75.52;96001.78;6096175;23;20160;-83
2023/02/01 06:50:54;;;;;;;4.80;4.17;;;;;;;4.67;75.87;96002.47;6095267;23;20252;-82
2023/02/01 06:53:20;;;;;;;4.83;3.60;;;;;;;4.64;75.89;95999.38;6095364;23;20196;-83
2023/02/01 06:55:52;;;;;;;4.83;3.87;;;;;;;4.71;75.40;95998.72;6096364;23;20659;-83
2023/02/01 06:58:19;;;;;;;4.57;3.77;;;;;;;4.69;75.30;95995.50;6097510;23;20160;-83
2023/02/01 07:00:53;;;;;;;5.20;3.87;;;;;;;4.74;75.00;95990.81;6095652;23;20219;-82
2023/02/01 07:03:21;;;;;;;4.60;3.33;;;;;;;4.84;74.70;95989.09;6096545;23;20171;-83
2023/02/01 07:05:48;;;;;;;4.90;3.93;;;;;;;4.73;74.94;95986.66;6096842;23;20564;-83
2023/02/01 07:08:14;;;;;;;3.47;3.17;;;;;;;4.72;75.34;95991.88;6096365;23;20741;-83
2023/02/01 07:10:40;;;;;;;5.70;3.50;;;;;;;4.74;75.29;96003.59;6096092;23;20207;-83
2023/02/01 07:13:09;;;;;;;4.03;3.40;;;;;;;4.73;75.03;95991.75;6097620;23;20207;-83
2023/02/01 07:15:35;;;;;;;3.63;3.33;;;;;;;4.69;75.54;95984.50;6097532;23;20191;-83
2023/02/01 07:18:02;;;;;;;4.23;3.50;;;;;;;4.68;75.46;95985.44;6095714;23;20184;-83
2023/02/01 07:20:31;;;;;;;4.20;3.43;;;;;;;4.79;75.35;95991.25;6095781;23;20196;-83
2023/02/01 07:22:58;;;;;;;3.83;3.33;;;;;;;4.66;75.17;95985.56;6094866;23;20180;-81
2023/02/01 07:25:25;;;;;;;3.60;3.10;;;;;;;4.61;75.77;95979.25;6094530;23;20516;-83
2023/02/01 07:27:52;;;;;;;3.57;2.90;;;;;;;4.63;75.37;95983.25;6096223;23;20184;-83
2023/02/01 07:30:19;;;;;;;4.00;3.27;;;;;;;4.67;74.74;95982.06;6095367;23;20219;-83
2023/02/01 07:32:45;;;;;;;2.97;2.67;;;;;;;4.65;74.66;95971.19;6093709;23;20176;-83
2023/02/01 07:35:12;;;;;;;3.47;2.73;;;;;;;4.64;75.12;95976.41;6093966;23;20211;-82
2023/02/01 07:37:42;;;;;;;4.17;2.90;;;;;;;4.71;74.54;95985.97;6093775;23;20203;-83
2023/02/01 07:40:10;;;;;;;2.90;2.60;;;;;;;4.76;74.15;95978.75;6094974;23;20200;-83
2023/02/01 07:42:36;;;;;;;3.30;2.93;;;;;;;4.74;74.55;95972.97;6093236;23;20179;-83
2023/02/01 07:45:03;;;;;;;3.43;3.00;;;;;;;4.71;74.49;95968.13;6096168;23;20186;-82
2023/02/01 07:47:31;;;;;;;4.33;2.97;;;;;;;4.82;74.19;95967.19;6096056;23;20321;-83
2023/02/01 07:49:57;;;;;;;3.73;3.10;;;;;;;4.73;73.93;95963.72;6096338;23;20195;-83
2023/02/01 07:52:24;;;;;;;3.00;2.70;;;;;;;4.81;73.83;95973.28;6096471;23;20180;-83
2023/02/01 07:54:52;;;;;;;3.17;2.70;;;;;;;4.80;73.51;95987.75;6095306;23;20200;-83
2023/02/01 07:57:18;;;;;;;3.30;3.00;;;;;;;4.89;72.88;95987.91;6095257;23;20571;-83
2023/02/01 08:02:25;;;;;;;2.47;2.27;;;;;;;4.98;72.28;95999.88;6093594;23;20651;-83
2023/02/01 08:04:51;;;;;;;2.97;2.53;;;;;;;4.99;72.40;96002.31;6095677;23;20176;-83
2023/02/01 08:07:18;;;;;;;3.07;2.63;;;;;;;5.00;71.64;96009.03;6096398;23;20176;-83
2023/02/01 08:09:44;;;;;;;2.87;2.57;;;;;;;5.11;71.73;96013.19;6098148;23;20207;-85
2023/02/01 08:12:12;;;;;;;2.60;2.40;;;;;;;5.10;71.31;96011.56;6094309;23;20180;-85
2023/02/01 08:14:40;;;;;;;3.53;2.60;;;;;;;5.16;71.02;96023.81;6095300;23;20517;-85
2023/02/01 08:17:07;;;;;;;2.80;2.60;;;;;;;5.13;70.65;96024.88;6094411;23;20198;-82
2023/02/01 08:19:33;;;;;;;2.90;2.63;;;;;;;5.17;70.28;96025.44;6097210;23;20207;-83
2023/02/01 08:22:06;;;;;;;2.80;2.30;;;;;;;5.21;70.28;96027.56;6097177;23;20711;-82
2023/02/01 08:24:32;;;;;;;4.33;3.20;;;;;;;5.28;69.68;96027.03;6096733;23;20165;-83
2023/02/01 08:26:58;;;;;;;3.10;2.30;;;;;;;5.17;69.60;96020.31;6095347;23;20188;-83
2023/02/01 08:29:26;;;;;;;2.97;2.50;;;;;;;5.23;68.69;96022.31;6095936;23;20204;-82
2023/02/01 08:31:54;;;;;;;4.60;2.50;;;;;;;5.29;68.63;96031.22;6096535;23;20191;-83
2023/02/01 08:34:20;;;;;;;2.40;2.13;;;;;;;5.31;68.32;96048.00;6095005;23;20280;-82
2023/02/01 08:36:47;;;;;;;2.70;2.50;;;;;;;5.30;68.09;96038.75;6095782;23;20670;-84
2023/02/01 08:39:13;;;;;;;3.27;2.27;;;;;;;5.29;67.83;96018.44;6097005;23;20176;-83
2023/02/01 08:41:41;;;;;;;2.87;2.37;;;;;;;5.35;67.67;96036.59;6095916;23;20220;-82
2023/02/01 08:44:08;;;;;;;3.83;2.23;;;;;;;5.34;67.41;96044.41;6096313;23;20178;-82
2023/02/01 08:46:36;;;;;;;2.93;2.10;;;;;;;5.42;67.18;96021.53;6098035;23;20181;-83
2023/02/01 08:49:02;;;;;;;2.90;2.60;;;;;;;5.46;66.47;96026.25;6097108;23;20186;-83
2023/02/01 08:51:31;;;;;;;3.17;2.67;;;;;;;5.50;66.47;96022.50;6097070;23;20533;-82
2023/02/01 08:54:00;;;;;;;2.90;2.40;;;;;;;5.48;66.77;96044.00;6096160;23;20204;-83
2023/02/01 08:56:27;;;;;;;2.93;2.37;;;;;;;5.49;66.56;96025.19;6098465;23;20186;-82
2023/02/01 08:58:53;;;;;;;2.93;2.37;;;;;;;5.44;66.39;96034.97;6100837;23;20176;-82
2023/02/01 09:01:19;;;;;;;2.97;2.60;;;;;;;5.53;66.08;96029.88;6099705;23;20710;-83
2023/02/01 09:03:47;;;;;;;2.40;2.20;;;;;;;5.54;66.00;96026.41;6097912;23;20176;-82
2023/02/01 09:06:15;;;;;;;2.70;2.40;;;;;;;5.50;66.14;96017.38;6099395;23;20177;-83
2023/02/01 09:08:42;;;;;;;2.73;2.30;;;;;;;5.52;65.34;96030.81;6098559;23;20226;-83
2023/02/01 09:11:12;;;;;;;2.50;2.30;;;;;;;5.59;65.28;96025.97;6099293;23;20248;-83
2023/02/01 09:13:38;;;;;;;3.40;2.60;;;;;;;5.69;65.32;96033.66;6098424;23;20177;-83
2023/02/01 09:16:05;;;;;;;2.93;2.63;;;;;;;5.78;64.89;96033.63;6099382;23;20255;-83
2023/02/01 09:18:32;;;;;;;3.07;2.47;;;;;;;5.69;64.66;96049.78;6095735;23;20667;-83
2023/02/01 09:20:59;;;;;;;2.50;2.20;;;;;;;5.65;65.00;96027.19;6097420;23;20196;-83
2023/02/01 09:23:26;;;;;;;2.70;2.50;;;;;;;5.73;65.10;96027.34;6097467;23;20176;-83
2023/02/01 09:25:52;;;;;;;3.60;2.40;;;;;;;5.63;65.23;96027.31;6098180;23;20749;-83
2023/02/01 09:28:19;;;;;;;2.50;2.30;;;;;;;5.67;65.49;96023.56;6096592;23;20176;-83
2023/02/01 09:30:46;;;;;;;2.40;2.20;;;;;;;5.73;65.35;96024.78;6097371;23;20204;-83
2023/02/01 09:33:12;;;;;;;2.80;2.50;;;;;;;5.69;65.51;96025.97;6096691;23;20191;-83
2023/02/01 09:35:39;;;;;;;2.97;2.27;;;;;;;5.79;65.54;96030.13;6096678;23;20200;-83
2023/02/01 09:38:07;;;;;;;3.23;2.20;;;;;;;5.82;65.12;96016.28;6099013;23;20180;-83
2023/02/01 09:40:35;;;;;;;2.50;2.07;;;;;;;5.90;65.09;96011.34;6098267;23;20206;-84
2023/02/01 09:43:22;;;;;;;2.37;2.17;;;;;;;5.88;64.83;96029.34;6098738;23;20188;-83
2023/02/01 09:46:02;;;;;;;2.60;2.30;;;;;;;5.95;64.91;96028.81;6099521;23;20180;-83
2023/02/01 09:48:33;;;;;;;3.80;2.23;;;;;;;6.02;64.73;96035.78;6098273;23;20164;-83
2023/02/01 09:51:03;;;;;;;2.30;2.10;;;;;;;5.96;64.62;96028.69;6098702;23;20196;-83
2023/02/01 09:53:59;;;;;;;4.90;2.90;;;;;;;5.98;64.97;96029.31;6094077;23;20172;-84
2023/02/01 09:56:31;;;;;;;2.70;2.20;;;;;;;6.03;64.19;96028.94;6086447;23;20181;-84
2023/02/01 09:59:07;;;;;;;2.43;1.90;;;;;;;5.95;64.37;96027.06;6091419;23;20167;-84
2023/02/01 10:01:34;;;;;;;4.07;2.20;;;;;;;5.95;64.56;96042.41;6090148;23;20202;-84
2023/02/01 10:04:06;;;;;;;2.57;2.17;;;;;;;5.96;64.63;96040.66;6093638;23;20199;-84
2023/02/01 10:06:42;;;;;;;4.47;2.60;;;;;;;5.99;64.66;96042.91;6095870;23;20176;-83
2023/02/01 10:09:20;;;;;;;3.67;2.20;;;;;;;6.03;64.93;96036.59;6097379;23;20794;-83
2023/02/01 10:12:01;;;;;;;5.13;2.20;;;;;;;6.06;65.07;96044.00;6096577;23;20199;-83
2023/02/01 10:14:47;;;;;;;6.00;2.93;;;;;;;6.08;64.22;96042.91;6097079;23;20535;-84
2023/02/01 10:17:24;;;;;;;5.90;3.50;;;;;;;6.00;64.90;96042.78;6095899;23;20180;-82
2023/02/01 10:20:01;;;;;;;3.00;2.27;;;;;;;5.96;64.91;96038.91;6096846;23;20576;-83
2023/02/01 10:22:40;;;;;;;3.37;2.53;;;;;;;5.85;65.55;96044.13;6096290;23;20157;-83
2023/02/01 10:25:15;;;;;;;3.00;2.60;;;;;;;5.89;65.63;96053.16;6098084;23;20164;-84
2023/02/01 10:27:42;;;;;;;3.40;2.70;;;;;;;5.97;65.82;96048.16;6096203;23;20159;-83
2023/02/01 10:30:19;;;;;;;2.97;2.70;;;;;;;5.92;65.51;96049.53;6096235;23;20210;-83
2023/02/01 10:32:46;;;;;;;4.63;2.67;;;;;;;5.91;65.71;96042.81;6096207;23;20667;-83
2023/02/01 10:35:17;;;;;;;2.73;2.40;;;;;;;5.97;65.88;96057.56;6095483;23;20215;-83
2023/02/01 10:37:45;;;;;;;2.87;2.50;;;;;;;5.99;65.41;96056.50;6096677;23;20527;-84
2023/02/01 10:40:19;;;;;;;3.00;2.63;;;;;;;6.02;65.53;96051.13;6095265;23;20200;-83
2023/02/01 10:42:46;;;;;;;2.27;2.07;;;;;;;6.00;66.01;96063.22;6096289;23;20199;-83
2023/02/01 10:45:17;;;;;;;2.47;2.20;;;;;;;5.93;65.80;96048.59;6097734;23;20187;-84
2023/02/01 10:47:44;;;;;;;6.30;2.40;;;;;;;6.01;65.79;96051.25;6096178;23;20160;-84
2023/02/01 10:50:19;;;;;;;2.37;2.07;;;;;;;6.00;65.99;96047.88;6096366;23;20199;-83
2023/02/01 10:52:51;;;;;;;3.53;2.40;;;;;;;5.94;66.37;96045.91;6097196;23;20156;-83
2023/02/01 10:55:38;;;;;;;2.63;2.43;;;;;;;5.93;66.46;96054.50;6096186;23;20193;-83
2023/02/01 10:58:08;;;;;;;3.70;2.50;;;;;;;5.82;66.96;96037.53;6094414;23;20176;-83
2023/02/01 11:00:44;;;;;;;2.97;2.33;;;;;;;5.97;66.64;96052.47;6096204;23;20196;-83
2023/02/01 11:03:35;;;;;;;3.20;2.40;;;;;;;5.89;66.47;96059.09;6097518;23;20211;-84
2023/02/01 11:06:03;;;;;;;4.07;2.60;;;;;;;5.97;65.95;96048.16;6096025;23;20681;-83
2023/02/01 11:08:30;;;;;;;3.77;2.57;;;;;;;6.03;66.18;96054.47;6095139;23;20715;-83
2023/02/01 11:11:02;;;;;;;4.30;2.70;;;;;;;6.00;65.76;96063.22;6094082;23;20196;-83
2023/02/01 11:13:31;;;;;;;2.90;2.60;;;;;;;6.05;66.21;96071.31;6094268;23;20258;-83
2023/02/01 11:15:58;;;;;;;2.90;2.67;;;;;;;6.12;65.95;96072.38;6094418;23;20675;-83
2023/02/01 11:18:28;;;;;;;2.83;2.50;;;;;;;6.11;65.62;96065.66;6094432;23;20575;-83
2023/02/01 11:20:55;;;;;;;3.37;2.57;;;;;;;6.11;65.50;96069.94;6095259;23;20197;-83
2023/02/01 11:23:24;;;;;;;2.90;2.53;;;;;;;6.07;65.50;96071.97;6096284;23;20180;-83
2023/02/01 11:25:53;;;;;;;4.90;2.90;;;;;;;5.99;65.85;96073.59;6096774;23;20679;-83
2023/02/01 11:28:24;;;;;;;2.53;2.33;;;;;;;5.90;65.68;96072.66;6096690;23;20256;-82
2023/02/01 11:30:54;;;;;;;5.03;2.80;;;;;;;5.92;66.17;96075.91;6096138;23;20208;-82
2023/02/01 11:33:24;;;;;;;3.23;2.37;;;;;;;5.86;66.28;96066.19;6095790;23;20187;-83
2023/02/01 11:35:52;;;;;;;2.60;2.40;;;;;;;5.90;66.39;96085.44;6095906;23;20185;-82
2023/02/01 11:38:23;;;;;;;3.63;2.60;;;;;;;5.79;66.48;96072.75;6094886;23;20187;-82
2023/02/01 11:40:50;;;;;;;3.33;2.70;;;;;;;5.78;66.84;96073.69;6094928;23;20223;-82
2023/02/01 11:43:24;;;;;;;2.80;2.40;;;;;;;5.68;66.07;96075.47;6095259;23;20214;-82
2023/02/01 11:45:59;;;;;;;3.37;2.67;;;;;;;5.68;66.76;96062.69;6095391;23;20160;-83
2023/02/01 11:48:27;;;;;;;4.57;2.60;;;;;;;5.68;66.64;96078.00;6094461;23;20180;-83
2023/02/01 11:51:05;;;;;;;2.77;2.50;;;;;;;5.68;66.93;96060.13;6096750;23;20199;-82
2023/02/01 11:53:42;;;;;;;3.10;2.80;;;;;;;5.73;66.88;96070.75;6096938;23;20164;-82
2023/02/01 11:56:16;;;;;;;3.53;2.80;;;;;;;5.75;66.77;96058.66;6096129;23;20691;-83
2023/02/01 11:59:02;;;;;;;3.73;2.90;;;;;;;5.67;66.93;96059.31;6089607;23;20251;-82
2023/02/01 12:01:39;;;;;;;3.33;2.90;;;;;;;5.65;67.46;96047.63;6094306;23;20196;-83
2023/02/01 12:04:31;;;;;;;3.60;3.30;;;;;;;5.74;67.41;96068.06;6099815;23;20599;-82
2023/02/01 12:07:06;;;;;;;3.77;3.20;;;;;;;5.72;67.76;96052.06;6092833;23;20180;-83
2023/02/01 12:09:47;;;;;;;3.93;3.07;;;;;;;5.81;67.72;96027.44;6096396;23;20664;-83
2023/02/01 12:12:23;;;;;;;3.83;3.43;;;;;;;5.81;67.32;96032.53;6096928;23;20160;-83
2023/02/01 12:15:05;;;;;;;4.27;3.30;;;;;;;5.81;67.50;96022.31;6096709;23;20520;-83
2023/02/01 12:18:09;;;;;;;6.37;2.90;;;;;;;5.81;67.23;96046.13;6094903;23;20160;-83